sensor_id;sensor_type;location;lat;lon;timestamp;P1;durP1;ratioP1;P2;durP2;ratioP2
77170;SDS011;66144;50.020;14.422;2023-07-24T00:01:48;5.57;;;2.95;;
77170;SDS011;66144;50.020;14.422;2023-07-24T00:04:14;5.88;;;3.40;;
77170;SDS011;66144;50.020;14.422;2023-07-24T00:06:39;7.13;;;3.65;;
77170;SDS011;66144;50.020;14.422;2023-07-24T00:09:05;6.03;;;3.78;;
77170;SDS011;66144;50.020;14.422;2023-07-24T00:11:30;6.30;;;3.90;;
77170;SDS011;66144;50.020;14.422;2023-07-24T00:13:55;5.88;;;3.80;;
77170;SDS011;66144;50.020;14.422;2023-07-24T00:16:21;5.30;;;3.03;;
77170;SDS011;66144;50.020;14.422;2023-07-24T00:18:46;6.70;;;3.95;;
77170;SDS011;66144;50.020;14.422;2023-07-24T00:21:11;8.13;;;3.63;;
77170;SDS011;66144;50.020;14.422;2023-07-24T00:23:38;6.93;;;3.45;;
77170;SDS011;66144;50.020;14.422;2023-07-24T00:26:03;5.25;;;3.40;;
77170;SDS011;66144;50.020;14.422;2023-07-24T00:28:29;5.55;;;3.30;;
77170;SDS011;66144;50.020;14.422;2023-07-24T00:30:54;6.65;;;3.78;;
77170;SDS011;66144;50.020;14.422;2023-07-24T00:33:21;5.80;;;3.45;;
77170;SDS011;66144;50.020;14.422;2023-07-24T00:35:47;6.95;;;3.47;;
77170;SDS011;66144;50.020;14.422;2023-07-24T00:38:12;5.93;;;3.50;;
77170;SDS011;66144;50.020;14.422;2023-07-24T00:40:37;5.32;;;3.30;;
77170;SDS011;66144;50.020;14.422;2023-07-24T00:43:03;6.03;;;3.58;;
77170;SDS011;66144;50.020;14.422;2023-07-24T00:45:28;6.85;;;3.47;;
77170;SDS011;66144;50.020;14.422;2023-07-24T00:47:54;5.82;;;3.35;;
77170;SDS011;66144;50.020;14.422;2023-07-24T00:50:19;6.50;;;3.33;;
77170;SDS011;66144;50.020;14.422;2023-07-24T00:52:45;5.82;;;3.70;;
77170;SDS011;66144;50.020;14.422;2023-07-24T00:55:12;7.10;;;3.90;;
77170;SDS011;66144;50.020;14.422;2023-07-24T00:57:38;4.85;;;3.25;;
77170;SDS011;66144;50.020;14.422;2023-07-24T01:00:05;7.68;;;3.42;;
77170;SDS011;66144;50.020;14.422;2023-07-24T01:02:31;6.95;;;3.40;;
77170;SDS011;66144;50.020;14.422;2023-07-24T01:04:57;5.13;;;3.45;;
77170;SDS011;66144;50.020;14.422;2023-07-24T01:07:23;6.43;;;3.35;;
77170;SDS011;66144;50.020;14.422;2023-07-24T01:09:49;5.90;;;3.10;;
77170;SDS011;66144;50.020;14.422;2023-07-24T01:15:06;6.68;;;3.38;;
77170;SDS011;66144;50.020;14.422;2023-07-24T01:17:39;6.13;;;3.60;;
77170;SDS011;66144;50.020;14.422;2023-07-24T01:20:10;6.80;;;3.45;;
77170;SDS011;66144;50.020;14.422;2023-07-24T01:22:39;6.05;;;3.45;;
77170;SDS011;66144;50.020;14.422;2023-07-24T01:25:27;8.10;;;3.40;;
77170;SDS011;66144;50.020;14.422;2023-07-24T01:27:56;6.70;;;3.80;;
77170;SDS011;66144;50.020;14.422;2023-07-24T01:30:22;5.57;;;3.47;;
77170;SDS011;66144;50.020;14.422;2023-07-24T01:32:48;5.15;;;3.17;;
77170;SDS011;66144;50.020;14.422;2023-07-24T01:35:14;6.55;;;3.80;;
77170;SDS011;66144;50.020;14.422;2023-07-24T01:37:39;6.88;;;3.47;;
77170;SDS011;66144;50.020;14.422;2023-07-24T01:40:07;7.75;;;3.70;;
77170;SDS011;66144;50.020;14.422;2023-07-24T01:42:33;7.65;;;4.05;;
77170;SDS011;66144;50.020;14.422;2023-07-24T01:44:59;6.65;;;3.78;;
77170;SDS011;66144;50.020;14.422;2023-07-24T01:47:25;6.55;;;3.75;;
77170;SDS011;66144;50.020;14.422;2023-07-24T01:49:50;5.65;;;3.45;;
77170;SDS011;66144;50.020;14.422;2023-07-24T01:52:17;6.70;;;3.83;;
77170;SDS011;66144;50.020;14.422;2023-07-24T01:54:43;5.57;;;3.60;;
77170;SDS011;66144;50.020;14.422;2023-07-24T01:57:10;5.30;;;3.25;;
77170;SDS011;66144;50.020;14.422;2023-07-24T01:59:49;5.53;;;3.45;;
77170;SDS011;66144;50.020;14.422;2023-07-24T02:02:14;5.45;;;3.15;;
77170;SDS011;66144;50.020;14.422;2023-07-24T02:04:40;7.15;;;4.13;;
77170;SDS011;66144;50.020;14.422;2023-07-24T02:07:05;6.47;;;3.65;;
77170;SDS011;66144;50.020;14.422;2023-07-24T02:09:31;6.63;;;3.83;;
77170;SDS011;66144;50.020;14.422;2023-07-24T02:11:56;6.90;;;3.90;;
77170;SDS011;66144;50.020;14.422;2023-07-24T02:14:21;8.32;;;3.92;;
77170;SDS011;66144;50.020;14.422;2023-07-24T02:16:47;6.30;;;3.90;;
77170;SDS011;66144;50.020;14.422;2023-07-24T02:19:12;6.53;;;4.00;;
77170;SDS011;66144;50.020;14.422;2023-07-24T02:21:37;7.03;;;4.07;;
77170;SDS011;66144;50.020;14.422;2023-07-24T02:24:03;6.10;;;3.53;;
77170;SDS011;66144;50.020;14.422;2023-07-24T02:26:29;7.05;;;3.97;;
77170;SDS011;66144;50.020;14.422;2023-07-24T02:28:54;5.82;;;3.20;;
77170;SDS011;66144;50.020;14.422;2023-07-24T02:31:20;7.15;;;4.03;;
77170;SDS011;66144;50.020;14.422;2023-07-24T02:33:45;6.53;;;3.80;;
77170;SDS011;66144;50.020;14.422;2023-07-24T02:36:11;5.05;;;3.25;;
77170;SDS011;66144;50.020;14.422;2023-07-24T02:38:36;5.82;;;3.90;;
77170;SDS011;66144;50.020;14.422;2023-07-24T02:41:02;6.72;;;3.83;;
77170;SDS011;66144;50.020;14.422;2023-07-24T02:43:27;6.28;;;3.72;;
77170;SDS011;66144;50.020;14.422;2023-07-24T02:45:53;6.95;;;3.40;;
77170;SDS011;66144;50.020;14.422;2023-07-24T02:48:18;6.63;;;3.67;;
77170;SDS011;66144;50.020;14.422;2023-07-24T02:50:43;7.72;;;4.03;;
77170;SDS011;66144;50.020;14.422;2023-07-24T02:53:09;8.95;;;3.75;;
77170;SDS011;66144;50.020;14.422;2023-07-24T02:55:34;5.40;;;3.25;;
77170;SDS011;66144;50.020;14.422;2023-07-24T02:58:00;6.85;;;3.88;;
77170;SDS011;66144;50.020;14.422;2023-07-24T03:00:25;6.38;;;3.85;;
77170;SDS011;66144;50.020;14.422;2023-07-24T03:02:51;5.93;;;3.83;;
77170;SDS011;66144;50.020;14.422;2023-07-24T03:05:17;7.68;;;3.92;;
77170;SDS011;66144;50.020;14.422;2023-07-24T03:07:43;6.95;;;3.72;;
77170;SDS011;66144;50.020;14.422;2023-07-24T03:10:08;5.85;;;3.78;;
77170;SDS011;66144;50.020;14.422;2023-07-24T03:12:34;6.80;;;3.72;;
77170;SDS011;66144;50.020;14.422;2023-07-24T03:14:59;6.78;;;3.90;;
77170;SDS011;66144;50.020;14.422;2023-07-24T03:17:25;7.32;;;4.43;;
77170;SDS011;66144;50.020;14.422;2023-07-24T03:19:50;7.00;;;4.60;;
77170;SDS011;66144;50.020;14.422;2023-07-24T03:22:15;7.57;;;4.45;;
77170;SDS011;66144;50.020;14.422;2023-07-24T03:24:41;8.07;;;4.25;;
77170;SDS011;66144;50.020;14.422;2023-07-24T03:27:06;7.13;;;4.15;;
77170;SDS011;66144;50.020;14.422;2023-07-24T03:29:32;7.15;;;3.78;;
77170;SDS011;66144;50.020;14.422;2023-07-24T03:31:57;7.25;;;4.05;;
77170;SDS011;66144;50.020;14.422;2023-07-24T03:34:23;7.68;;;4.90;;
77170;SDS011;66144;50.020;14.422;2023-07-24T03:36:48;8.07;;;4.53;;
77170;SDS011;66144;50.020;14.422;2023-07-24T03:39:14;8.18;;;5.13;;
77170;SDS011;66144;50.020;14.422;2023-07-24T03:41:40;7.60;;;4.40;;
77170;SDS011;66144;50.020;14.422;2023-07-24T03:44:07;10.63;;;4.72;;
77170;SDS011;66144;50.020;14.422;2023-07-24T03:46:32;7.90;;;4.85;;
77170;SDS011;66144;50.020;14.422;2023-07-24T03:48:58;7.15;;;4.75;;
77170;SDS011;66144;50.020;14.422;2023-07-24T03:51:23;7.00;;;4.20;;
77170;SDS011;66144;50.020;14.422;2023-07-24T03:53:48;9.73;;;4.38;;
77170;SDS011;66144;50.020;14.422;2023-07-24T03:56:14;7.82;;;4.63;;
77170;SDS011;66144;50.020;14.422;2023-07-24T03:58:39;12.55;;;5.63;;
77170;SDS011;66144;50.020;14.422;2023-07-24T04:01:05;6.30;;;4.20;;
77170;SDS011;66144;50.020;14.422;2023-07-24T04:03:31;8.73;;;4.70;;
77170;SDS011;66144;50.020;14.422;2023-07-24T04:05:56;8.02;;;4.38;;
77170;SDS011;66144;50.020;14.422;2023-07-24T04:08:22;9.52;;;4.50;;
77170;SDS011;66144;50.020;14.422;2023-07-24T04:10:47;9.65;;;4.30;;
77170;SDS011;66144;50.020;14.422;2023-07-24T04:13:12;7.97;;;4.40;;
77170;SDS011;66144;50.020;14.422;2023-07-24T04:15:38;9.57;;;4.30;;
77170;SDS011;66144;50.020;14.422;2023-07-24T04:18:04;7.47;;;4.57;;
77170;SDS011;66144;50.020;14.422;2023-07-24T04:20:30;8.75;;;4.47;;
77170;SDS011;66144;50.020;14.422;2023-07-24T04:22:55;8.10;;;4.15;;
77170;SDS011;66144;50.020;14.422;2023-07-24T04:25:20;8.13;;;4.90;;
77170;SDS011;66144;50.020;14.422;2023-07-24T04:27:46;7.00;;;4.18;;
77170;SDS011;66144;50.020;14.422;2023-07-24T04:30:11;7.43;;;4.30;;
77170;SDS011;66144;50.020;14.422;2023-07-24T04:32:36;7.00;;;4.43;;
77170;SDS011;66144;50.020;14.422;2023-07-24T04:35:02;10.38;;;5.35;;
77170;SDS011;66144;50.020;14.422;2023-07-24T04:37:27;8.23;;;4.60;;
77170;SDS011;66144;50.020;14.422;2023-07-24T04:39:53;8.27;;;4.50;;
77170;SDS011;66144;50.020;14.422;2023-07-24T04:42:18;8.80;;;5.28;;
77170;SDS011;66144;50.020;14.422;2023-07-24T04:44:44;9.75;;;5.00;;
77170;SDS011;66144;50.020;14.422;2023-07-24T04:47:12;9.70;;;5.07;;
77170;SDS011;66144;50.020;14.422;2023-07-24T04:49:37;7.80;;;4.18;;
77170;SDS011;66144;50.020;14.422;2023-07-24T04:52:03;8.35;;;4.55;;
77170;SDS011;66144;50.020;14.422;2023-07-24T04:54:28;8.63;;;4.55;;
77170;SDS011;66144;50.020;14.422;2023-07-24T04:56:54;7.25;;;4.20;;
77170;SDS011;66144;50.020;14.422;2023-07-24T04:59:19;8.73;;;4.22;;
77170;SDS011;66144;50.020;14.422;2023-07-24T05:01:45;8.73;;;4.70;;
77170;SDS011;66144;50.020;14.422;2023-07-24T05:04:10;8.55;;;4.90;;
77170;SDS011;66144;50.020;14.422;2023-07-24T05:06:35;7.15;;;4.22;;
77170;SDS011;66144;50.020;14.422;2023-07-24T05:09:03;6.50;;;4.00;;
77170;SDS011;66144;50.020;14.422;2023-07-24T05:11:28;6.82;;;4.18;;
77170;SDS011;66144;50.020;14.422;2023-07-24T05:13:54;8.60;;;4.70;;
77170;SDS011;66144;50.020;14.422;2023-07-24T05:16:19;9.55;;;5.03;;
77170;SDS011;66144;50.020;14.422;2023-07-24T05:18:44;8.20;;;4.65;;
77170;SDS011;66144;50.020;14.422;2023-07-24T05:21:10;8.07;;;4.50;;
77170;SDS011;66144;50.020;14.422;2023-07-24T05:23:36;7.50;;;4.72;;
77170;SDS011;66144;50.020;14.422;2023-07-24T05:26:01;8.50;;;4.75;;
77170;SDS011;66144;50.020;14.422;2023-07-24T05:28:28;8.27;;;4.82;;
77170;SDS011;66144;50.020;14.422;2023-07-24T05:30:54;9.93;;;4.43;;
77170;SDS011;66144;50.020;14.422;2023-07-24T05:33:20;7.55;;;4.63;;
77170;SDS011;66144;50.020;14.422;2023-07-24T05:35:46;8.05;;;4.78;;
77170;SDS011;66144;50.020;14.422;2023-07-24T05:38:11;9.43;;;5.35;;
77170;SDS011;66144;50.020;14.422;2023-07-24T05:40:37;8.82;;;5.00;;
77170;SDS011;66144;50.020;14.422;2023-07-24T05:43:02;8.25;;;4.63;;
77170;SDS011;66144;50.020;14.422;2023-07-24T05:45:29;8.38;;;4.65;;
77170;SDS011;66144;50.020;14.422;2023-07-24T05:47:54;7.07;;;4.25;;
77170;SDS011;66144;50.020;14.422;2023-07-24T05:50:19;10.82;;;5.05;;
77170;SDS011;66144;50.020;14.422;2023-07-24T05:52:45;9.23;;;5.50;;
77170;SDS011;66144;50.020;14.422;2023-07-24T05:55:10;9.30;;;4.85;;
77170;SDS011;66144;50.020;14.422;2023-07-24T05:57:36;12.02;;;5.57;;
77170;SDS011;66144;50.020;14.422;2023-07-24T06:00:02;11.40;;;5.68;;
77170;SDS011;66144;50.020;14.422;2023-07-24T06:02:29;9.98;;;5.70;;
77170;SDS011;66144;50.020;14.422;2023-07-24T06:04:54;12.98;;;6.03;;
77170;SDS011;66144;50.020;14.422;2023-07-24T06:07:19;9.85;;;5.72;;
77170;SDS011;66144;50.020;14.422;2023-07-24T06:09:45;9.25;;;5.60;;
77170;SDS011;66144;50.020;14.422;2023-07-24T06:12:10;11.57;;;5.57;;
77170;SDS011;66144;50.020;14.422;2023-07-24T06:14:35;9.48;;;5.78;;
77170;SDS011;66144;50.020;14.422;2023-07-24T06:17:01;9.82;;;6.15;;
77170;SDS011;66144;50.020;14.422;2023-07-24T06:19:26;9.23;;;6.10;;
77170;SDS011;66144;50.020;14.422;2023-07-24T06:21:51;10.15;;;5.03;;
77170;SDS011;66144;50.020;14.422;2023-07-24T06:24:17;8.70;;;5.40;;
77170;SDS011;66144;50.020;14.422;2023-07-24T06:26:43;11.35;;;6.00;;
77170;SDS011;66144;50.020;14.422;2023-07-24T06:29:08;9.38;;;5.65;;
77170;SDS011;66144;50.020;14.422;2023-07-24T06:31:33;8.48;;;5.10;;
77170;SDS011;66144;50.020;14.422;2023-07-24T06:33:59;10.05;;;5.82;;
77170;SDS011;66144;50.020;14.422;2023-07-24T06:36:24;10.60;;;5.55;;
77170;SDS011;66144;50.020;14.422;2023-07-24T06:38:50;9.13;;;5.60;;
77170;SDS011;66144;50.020;14.422;2023-07-24T06:41:15;9.90;;;5.72;;
77170;SDS011;66144;50.020;14.422;2023-07-24T06:43:41;9.52;;;5.80;;
77170;SDS011;66144;50.020;14.422;2023-07-24T06:46:07;9.57;;;5.28;;
77170;SDS011;66144;50.020;14.422;2023-07-24T06:48:32;9.32;;;5.43;;
77170;SDS011;66144;50.020;14.422;2023-07-24T06:50:58;10.13;;;5.03;;
77170;SDS011;66144;50.020;14.422;2023-07-24T06:53:23;9.68;;;5.43;;
77170;SDS011;66144;50.020;14.422;2023-07-24T06:55:49;8.48;;;5.32;;
77170;SDS011;66144;50.020;14.422;2023-07-24T06:58:14;9.05;;;5.35;;
77170;SDS011;66144;50.020;14.422;2023-07-24T07:00:39;8.75;;;5.38;;
77170;SDS011;66144;50.020;14.422;2023-07-24T07:03:05;9.35;;;5.35;;
77170;SDS011;66144;50.020;14.422;2023-07-24T07:05:33;10.88;;;5.63;;
77170;SDS011;66144;50.020;14.422;2023-07-24T07:07:58;7.82;;;4.90;;
77170;SDS011;66144;50.020;14.422;2023-07-24T07:10:24;10.38;;;5.50;;
77170;SDS011;66144;50.020;14.422;2023-07-24T07:12:49;10.68;;;5.70;;
77170;SDS011;66144;50.020;14.422;2023-07-24T07:15:15;8.43;;;5.03;;
77170;SDS011;66144;50.020;14.422;2023-07-24T07:17:40;9.45;;;5.18;;
77170;SDS011;66144;50.020;14.422;2023-07-24T07:20:06;8.55;;;5.75;;
77170;SDS011;66144;50.020;14.422;2023-07-24T07:22:32;9.00;;;5.10;;
77170;SDS011;66144;50.020;14.422;2023-07-24T07:24:57;8.85;;;4.97;;
77170;SDS011;66144;50.020;14.422;2023-07-24T07:27:23;10.73;;;5.80;;
77170;SDS011;66144;50.020;14.422;2023-07-24T07:29:48;10.02;;;5.45;;
77170;SDS011;66144;50.020;14.422;2023-07-24T07:32:13;12.90;;;5.45;;
77170;SDS011;66144;50.020;14.422;2023-07-24T07:34:39;9.45;;;5.38;;
77170;SDS011;66144;50.020;14.422;2023-07-24T07:37:05;9.07;;;5.25;;
77170;SDS011;66144;50.020;14.422;2023-07-24T07:39:31;8.68;;;5.70;;
77170;SDS011;66144;50.020;14.422;2023-07-24T07:41:57;10.13;;;5.85;;
77170;SDS011;66144;50.020;14.422;2023-07-24T07:44:22;8.00;;;5.50;;
77170;SDS011;66144;50.020;14.422;2023-07-24T07:46:48;8.68;;;5.32;;
77170;SDS011;66144;50.020;14.422;2023-07-24T07:49:13;9.35;;;4.90;;
77170;SDS011;66144;50.020;14.422;2023-07-24T07:51:38;7.32;;;5.40;;
77170;SDS011;66144;50.020;14.422;2023-07-24T07:54:04;10.68;;;5.75;;
77170;SDS011;66144;50.020;14.422;2023-07-24T07:56:29;8.35;;;5.63;;
77170;SDS011;66144;50.020;14.422;2023-07-24T07:58:55;10.13;;;5.43;;
77170;SDS011;66144;50.020;14.422;2023-07-24T08:01:20;10.90;;;5.47;;
77170;SDS011;66144;50.020;14.422;2023-07-24T08:03:45;8.27;;;5.43;;
77170;SDS011;66144;50.020;14.422;2023-07-24T08:06:11;8.93;;;4.97;;
77170;SDS011;66144;50.020;14.422;2023-07-24T08:08:37;8.18;;;5.25;;
77170;SDS011;66144;50.020;14.422;2023-07-24T08:11:06;7.65;;;5.45;;
77170;SDS011;66144;50.020;14.422;2023-07-24T08:13:32;9.05;;;6.07;;
77170;SDS011;66144;50.020;14.422;2023-07-24T08:15:58;8.65;;;6.07;;
77170;SDS011;66144;50.020;14.422;2023-07-24T08:18:24;9.68;;;5.82;;
77170;SDS011;66144;50.020;14.422;2023-07-24T08:20:50;10.10;;;5.78;;
77170;SDS011;66144;50.020;14.422;2023-07-24T08:23:16;8.57;;;5.28;;
77170;SDS011;66144;50.020;14.422;2023-07-24T08:25:50;8.25;;;5.25;;
77170;SDS011;66144;50.020;14.422;2023-07-24T08:28:16;11.32;;;5.90;;
77170;SDS011;66144;50.020;14.422;2023-07-24T08:30:41;10.75;;;5.68;;
77170;SDS011;66144;50.020;14.422;2023-07-24T08:33:06;8.45;;;5.05;;
77170;SDS011;66144;50.020;14.422;2023-07-24T08:35:32;10.38;;;5.88;;
77170;SDS011;66144;50.020;14.422;2023-07-24T08:37:57;10.00;;;5.72;;
77170;SDS011;66144;50.020;14.422;2023-07-24T08:40:23;9.40;;;5.72;;
77170;SDS011;66144;50.020;14.422;2023-07-24T08:42:48;9.00;;;5.78;;
77170;SDS011;66144;50.020;14.422;2023-07-24T08:45:15;11.10;;;5.97;;
77170;SDS011;66144;50.020;14.422;2023-07-24T08:47:41;8.95;;;5.60;;
77170;SDS011;66144;50.020;14.422;2023-07-24T08:50:11;11.18;;;6.53;;
77170;SDS011;66144;50.020;14.422;2023-07-24T08:52:40;8.95;;;5.68;;
77170;SDS011;66144;50.020;14.422;2023-07-24T08:55:07;8.65;;;5.82;;
77170;SDS011;66144;50.020;14.422;2023-07-24T08:57:33;10.40;;;5.75;;
77170;SDS011;66144;50.020;14.422;2023-07-24T08:59:59;10.15;;;5.97;;
77170;SDS011;66144;50.020;14.422;2023-07-24T09:02:25;9.40;;;5.35;;
77170;SDS011;66144;50.020;14.422;2023-07-24T09:04:51;8.73;;;5.72;;
77170;SDS011;66144;50.020;14.422;2023-07-24T09:07:16;9.77;;;5.90;;
77170;SDS011;66144;50.020;14.422;2023-07-24T09:09:42;9.10;;;5.85;;
77170;SDS011;66144;50.020;14.422;2023-07-24T09:12:07;10.82;;;5.95;;
77170;SDS011;66144;50.020;14.422;2023-07-24T09:14:33;9.32;;;5.93;;
77170;SDS011;66144;50.020;14.422;2023-07-24T09:17:02;10.00;;;6.10;;
77170;SDS011;66144;50.020;14.422;2023-07-24T09:19:28;10.07;;;6.25;;
77170;SDS011;66144;50.020;14.422;2023-07-24T09:21:53;9.07;;;6.10;;
77170;SDS011;66144;50.020;14.422;2023-07-24T09:24:18;8.75;;;5.28;;
77170;SDS011;66144;50.020;14.422;2023-07-24T09:26:50;9.80;;;5.82;;
77170;SDS011;66144;50.020;14.422;2023-07-24T09:29:17;8.13;;;5.40;;
77170;SDS011;66144;50.020;14.422;2023-07-24T09:31:43;10.10;;;6.25;;
77170;SDS011;66144;50.020;14.422;2023-07-24T09:34:13;9.27;;;5.43;;
77170;SDS011;66144;50.020;14.422;2023-07-24T09:36:42;8.68;;;5.80;;
77170;SDS011;66144;50.020;14.422;2023-07-24T09:39:09;8.25;;;5.45;;
77170;SDS011;66144;50.020;14.422;2023-07-24T09:41:36;7.75;;;5.70;;
77170;SDS011;66144;50.020;14.422;2023-07-24T09:44:02;8.88;;;6.30;;
77170;SDS011;66144;50.020;14.422;2023-07-24T09:46:27;12.10;;;6.05;;
77170;SDS011;66144;50.020;14.422;2023-07-24T09:48:55;8.85;;;6.32;;
77170;SDS011;66144;50.020;14.422;2023-07-24T09:51:22;8.18;;;5.80;;
77170;SDS011;66144;50.020;14.422;2023-07-24T09:56:38;8.88;;;5.85;;
77170;SDS011;66144;50.020;14.422;2023-07-24T09:59:05;8.30;;;5.68;;
77170;SDS011;66144;50.020;14.422;2023-07-24T10:01:31;7.72;;;5.05;;
77170;SDS011;66144;50.020;14.422;2023-07-24T10:03:57;10.30;;;5.53;;
77170;SDS011;66144;50.020;14.422;2023-07-24T10:06:24;9.77;;;5.75;;
77170;SDS011;66144;50.020;14.422;2023-07-24T10:08:50;8.98;;;5.82;;
77170;SDS011;66144;50.020;14.422;2023-07-24T10:11:16;8.68;;;6.07;;
77170;SDS011;66144;50.020;14.422;2023-07-24T10:13:42;10.15;;;6.13;;
77170;SDS011;66144;50.020;14.422;2023-07-24T10:16:08;8.10;;;5.60;;
77170;SDS011;66144;50.020;14.422;2023-07-24T10:18:34;9.30;;;6.05;;
77170;SDS011;66144;50.020;14.422;2023-07-24T10:21:01;11.13;;;5.68;;
77170;SDS011;66144;50.020;14.422;2023-07-24T10:23:33;7.68;;;5.22;;
77170;SDS011;66144;50.020;14.422;2023-07-24T10:26:05;8.18;;;5.50;;
77170;SDS011;66144;50.020;14.422;2023-07-24T10:28:32;9.07;;;6.20;;
77170;SDS011;66144;50.020;14.422;2023-07-24T10:31:18;8.77;;;5.13;;
77170;SDS011;66144;50.020;14.422;2023-07-24T10:33:45;10.57;;;5.90;;
77170;SDS011;66144;50.020;14.422;2023-07-24T10:36:11;12.18;;;5.90;;
77170;SDS011;66144;50.020;14.422;2023-07-24T10:38:42;8.70;;;5.47;;
77170;SDS011;66144;50.020;14.422;2023-07-24T10:41:09;9.70;;;5.78;;
77170;SDS011;66144;50.020;14.422;2023-07-24T10:46:07;8.45;;;5.57;;
77170;SDS011;66144;50.020;14.422;2023-07-24T10:48:33;9.43;;;6.38;;
77170;SDS011;66144;50.020;14.422;2023-07-24T10:51:05;8.68;;;5.82;;
77170;SDS011;66144;50.020;14.422;2023-07-24T10:53:34;10.05;;;6.25;;
77170;SDS011;66144;50.020;14.422;2023-07-24T10:56:00;10.10;;;5.60;;
77170;SDS011;66144;50.020;14.422;2023-07-24T10:58:25;9.75;;;5.88;;
77170;SDS011;66144;50.020;14.422;2023-07-24T11:00:51;8.48;;;5.63;;
77170;SDS011;66144;50.020;14.422;2023-07-24T11:03:17;8.40;;;5.38;;
77170;SDS011;66144;50.020;14.422;2023-07-24T11:05:43;10.77;;;5.80;;
77170;SDS011;66144;50.020;14.422;2023-07-24T11:08:14;9.65;;;5.78;;
77170;SDS011;66144;50.020;14.422;2023-07-24T11:10:47;8.75;;;5.70;;
77170;SDS011;66144;50.020;14.422;2023-07-24T11:13:14;8.60;;;5.57;;
77170;SDS011;66144;50.020;14.422;2023-07-24T11:15:40;12.77;;;5.65;;
77170;SDS011;66144;50.020;14.422;2023-07-24T11:18:06;8.95;;;6.05;;
77170;SDS011;66144;50.020;14.422;2023-07-24T11:20:44;8.38;;;5.22;;
77170;SDS011;66144;50.020;14.422;2023-07-24T11:23:11;9.10;;;5.78;;
77170;SDS011;66144;50.020;14.422;2023-07-24T11:25:37;9.75;;;5.70;;
77170;SDS011;66144;50.020;14.422;2023-07-24T11:28:04;8.90;;;5.97;;
77170;SDS011;66144;50.020;14.422;2023-07-24T11:30:31;11.90;;;5.60;;
77170;SDS011;66144;50.020;14.422;2023-07-24T11:32:57;8.88;;;5.70;;
77170;SDS011;66144;50.020;14.422;2023-07-24T11:35:24;8.23;;;5.80;;
77170;SDS011;66144;50.020;14.422;2023-07-24T11:37:51;7.75;;;5.32;;
77170;SDS011;66144;50.020;14.422;2023-07-24T11:40:16;10.48;;;6.18;;
77170;SDS011;66144;50.020;14.422;2023-07-24T11:42:45;9.90;;;6.05;;
77170;SDS011;66144;50.020;14.422;2023-07-24T11:45:12;8.20;;;5.47;;
77170;SDS011;66144;50.020;14.422;2023-07-24T11:47:47;9.65;;;5.40;;
77170;SDS011;66144;50.020;14.422;2023-07-24T11:50:14;8.95;;;5.68;;
77170;SDS011;66144;50.020;14.422;2023-07-24T11:52:42;8.82;;;6.25;;
77170;SDS011;66144;50.020;14.422;2023-07-24T11:55:12;9.55;;;6.15;;
77170;SDS011;66144;50.020;14.422;2023-07-24T11:57:40;8.30;;;5.57;;
77170;SDS011;66144;50.020;14.422;2023-07-24T12:00:05;9.35;;;6.30;;
77170;SDS011;66144;50.020;14.422;2023-07-24T12:02:43;11.45;;;6.30;;
77170;SDS011;66144;50.020;14.422;2023-07-24T12:05:09;10.60;;;6.50;;
77170;SDS011;66144;50.020;14.422;2023-07-24T12:07:35;10.77;;;6.32;;
77170;SDS011;66144;50.020;14.422;2023-07-24T12:10:01;10.10;;;6.40;;
77170;SDS011;66144;50.020;14.422;2023-07-24T12:15:24;11.10;;;7.28;;
77170;SDS011;66144;50.020;14.422;2023-07-24T12:17:51;9.63;;;6.55;;
77170;SDS011;66144;50.020;14.422;2023-07-24T12:20:17;12.07;;;7.22;;
77170;SDS011;66144;50.020;14.422;2023-07-24T12:22:43;9.73;;;6.40;;
77170;SDS011;66144;50.020;14.422;2023-07-24T12:25:09;10.77;;;6.60;;
77170;SDS011;66144;50.020;14.422;2023-07-24T12:27:34;9.65;;;6.47;;
77170;SDS011;66144;50.020;14.422;2023-07-24T12:30:00;11.20;;;6.38;;
77170;SDS011;66144;50.020;14.422;2023-07-24T12:32:25;10.02;;;6.93;;
77170;SDS011;66144;50.020;14.422;2023-07-24T12:34:51;12.57;;;6.70;;
77170;SDS011;66144;50.020;14.422;2023-07-24T12:37:18;13.50;;;6.70;;
77170;SDS011;66144;50.020;14.422;2023-07-24T12:39:47;11.27;;;6.30;;
77170;SDS011;66144;50.020;14.422;2023-07-24T12:42:13;12.55;;;6.80;;
77170;SDS011;66144;50.020;14.422;2023-07-24T12:44:40;12.15;;;6.55;;
77170;SDS011;66144;50.020;14.422;2023-07-24T12:47:06;9.68;;;6.40;;
77170;SDS011;66144;50.020;14.422;2023-07-24T12:49:32;9.95;;;6.78;;
77170;SDS011;66144;50.020;14.422;2023-07-24T12:51:58;10.15;;;6.63;;
77170;SDS011;66144;50.020;14.422;2023-07-24T12:54:23;10.18;;;6.95;;
77170;SDS011;66144;50.020;14.422;2023-07-24T12:56:49;11.32;;;6.90;;
77170;SDS011;66144;50.020;14.422;2023-07-24T12:59:17;10.82;;;7.28;;
77170;SDS011;66144;50.020;14.422;2023-07-24T13:01:44;12.75;;;6.97;;
77170;SDS011;66144;50.020;14.422;2023-07-24T13:04:10;10.93;;;6.45;;
77170;SDS011;66144;50.020;14.422;2023-07-24T13:06:35;11.13;;;6.88;;
77170;SDS011;66144;50.020;14.422;2023-07-24T13:09:01;9.98;;;6.15;;
77170;SDS011;66144;50.020;14.422;2023-07-24T13:11:27;10.13;;;6.53;;
77170;SDS011;66144;50.020;14.422;2023-07-24T13:13:53;12.10;;;6.78;;
77170;SDS011;66144;50.020;14.422;2023-07-24T13:16:19;9.00;;;6.75;;
77170;SDS011;66144;50.020;14.422;2023-07-24T13:18:44;11.80;;;6.95;;
77170;SDS011;66144;50.020;14.422;2023-07-24T13:21:10;9.85;;;6.03;;
77170;SDS011;66144;50.020;14.422;2023-07-24T13:23:35;10.10;;;6.10;;
77170;SDS011;66144;50.020;14.422;2023-07-24T13:26:01;9.85;;;6.53;;
77170;SDS011;66144;50.020;14.422;2023-07-24T13:28:26;9.75;;;6.70;;
77170;SDS011;66144;50.020;14.422;2023-07-24T13:30:52;10.25;;;6.45;;
77170;SDS011;66144;50.020;14.422;2023-07-24T13:33:18;12.10;;;6.63;;
77170;SDS011;66144;50.020;14.422;2023-07-24T13:35:44;8.75;;;5.45;;
77170;SDS011;66144;50.020;14.422;2023-07-24T13:38:09;8.63;;;5.78;;
77170;SDS011;66144;50.020;14.422;2023-07-24T13:40:35;10.55;;;5.95;;
77170;SDS011;66144;50.020;14.422;2023-07-24T13:43:01;10.35;;;6.35;;
77170;SDS011;66144;50.020;14.422;2023-07-24T13:45:27;10.35;;;6.15;;
77170;SDS011;66144;50.020;14.422;2023-07-24T13:47:53;10.75;;;5.75;;
77170;SDS011;66144;50.020;14.422;2023-07-24T13:50:18;10.18;;;5.78;;
77170;SDS011;66144;50.020;14.422;2023-07-24T13:52:44;10.52;;;5.82;;
77170;SDS011;66144;50.020;14.422;2023-07-24T13:55:09;9.15;;;5.53;;
77170;SDS011;66144;50.020;14.422;2023-07-24T13:57:35;8.60;;;5.32;;
77170;SDS011;66144;50.020;14.422;2023-07-24T14:00:00;10.38;;;5.60;;
77170;SDS011;66144;50.020;14.422;2023-07-24T14:02:25;8.07;;;5.53;;
77170;SDS011;66144;50.020;14.422;2023-07-24T14:04:51;8.73;;;5.55;;
77170;SDS011;66144;50.020;14.422;2023-07-24T14:07:18;7.90;;;5.20;;
77170;SDS011;66144;50.020;14.422;2023-07-24T14:09:43;9.30;;;5.20;;
77170;SDS011;66144;50.020;14.422;2023-07-24T14:12:09;8.90;;;5.32;;
77170;SDS011;66144;50.020;14.422;2023-07-24T14:14:34;9.23;;;5.35;;
77170;SDS011;66144;50.020;14.422;2023-07-24T14:16:59;7.40;;;5.15;;
77170;SDS011;66144;50.020;14.422;2023-07-24T14:19:25;9.93;;;5.80;;
77170;SDS011;66144;50.020;14.422;2023-07-24T14:21:51;8.85;;;5.03;;
77170;SDS011;66144;50.020;14.422;2023-07-24T14:24:16;9.73;;;5.30;;
77170;SDS011;66144;50.020;14.422;2023-07-24T14:26:42;8.50;;;5.40;;
77170;SDS011;66144;50.020;14.422;2023-07-24T14:29:09;8.85;;;5.18;;
77170;SDS011;66144;50.020;14.422;2023-07-24T14:31:35;9.25;;;5.72;;
77170;SDS011;66144;50.020;14.422;2023-07-24T14:34:00;8.23;;;5.75;;
77170;SDS011;66144;50.020;14.422;2023-07-24T14:36:26;7.55;;;5.10;;